Johnson Mountain Twp, Maine
Current Conditions -  °F | °C
As of 8:06 PM on Saturday 22 Nov 2014 (Local Time) from CYSC Reporting Station
Light Snow Light Snow  
Wind Chill: 22°   Ceiling: 1500
Heat Index: 30°   Visibility: 6mi
Dew Point: 28°   Wind: 9mph
Humidity: 93%   Direction: 220°SW
Pressure: 29.89"   Gusts: NA
Location:  45.7142°N, 70.304°W
Report Text: CYSC 230106Z AUTO 22008KT 6SM -SN OVC015 M01/M02 A2989 RMK SLP135
Loading
Personal Weather Stations






























Interactive Weather Map New forecast layout! Learn more

10-Day Weather Forecast

Advertisements
Track Severe Weather on mobile